Pagrindinis puslapis
METAR-TAF:

METAR-TAF

Oro uostai :

Nagoja, Japonija

platuma: 34-51-30N, ilguma: 136-48-19E, Aukštis: 5 m

Dabartinis oras

Ataskaita buvo paskelbta 13 minutes, ne 04:00 UTC
Vėjas 10 kt iš Pietryčių
Temperatūra 19°C
Drėgmė 83%
Slėgis 1017 hPa
Matomumas 10 km arba daugiau
Mažai debesys ne aukštis 1000 ft
Su prošvaistėmis ne aukštis 5000 ft
lietus

METAR: RJGG 310400Z 14010KT 9999 -SHRA FEW010 BKN050 19/16 Q1017 NOSIG

Laikas: 13:13 (04:13 UTC)

Prognozė

Ataskaita buvo paskelbta 5 valandos ir 8 minutes, ne 23:05 UTC
Prognozė galioja nuo 31 metu 00 UTC su 01 metu 06 UTC
Vėjas 12 kt iš Pietryčių
Matomumas: 8000 m
Mažai debesys ne aukštis 1500 ft
Su prošvaistėmis ne aukštis 3000 ft
Tapsmas
nuo 31 metu 18 UTC su 31 metu 21 UTC
Vėjas 6 kt iš Rytų/Šiaurės Rytų

TAF: RJGG 302305Z 3100/0106 14012KT 8000 FEW015 BKN030 BECMG 3118/3121 07006KT

Orai ataskaitas ir orų prognozės (METAR, TAF).

turimą stotys yra geltonos ir raudonos taškus žemėlapyje.

Perkelti pele per norėdami pamatyti stoties vardą.

Tada spustelėkite, norėdami matyti oro stebėjimo ir prognozės.

Norėdami pakeisti žemėlapį: spustelėkite ant žalios mygtukų su juodo kryžiaus žemyn,; žalią mygtuką su brūkšneliu, jei norite nutolinti; arba žalių rodyklių gretimoms žemėlapius.


METAR-TAF: